Time;durP1;ratioP1;P1;durP2;ratioP2;P2;SDS_P1;SDS_P2;PMS_P1;PMS_P2;Temp;Humidity;BMP_temperature;BMP_pressure;BME280_temperature;BME280_humidity;BME280_pressure;Samples;Min_cycle;Max_cycle;Signal;HPM_P1;HPM_P2
2023/06/06 00:01:49;;;;;;;3.40;2.50;;;;;;;18.25;37.58;101215.77;108426;1278;21975;-62
2023/06/06 00:04:14;;;;;;;6.70;4.20;;;;;;;18.19;37.72;101217.55;108526;1268;21984;-69
2023/06/06 00:06:44;;;;;;;7.00;3.80;;;;;;;18.10;37.66;101220.30;108405;1274;21982;-62
2023/06/06 00:09:10;;;;;;;5.40;4.70;;;;;;;18.00;37.70;101219.17;108612;1279;22448;-61
2023/06/06 00:11:39;;;;;;;5.90;3.60;;;;;;;17.91;37.78;101217.48;108652;1279;21991;-70
2023/06/06 00:14:09;;;;;;;5.90;2.80;;;;;;;17.86;37.88;101215.32;108630;1274;22008;-70
2023/06/06 00:16:35;;;;;;;;;;;;;;;17.82;37.99;101215.94;108483;1274;21974;-70
2023/06/06 00:19:02;;;;;;;4.10;1.50;;;;;;;17.79;38.05;101215.50;108411;1275;21981;-61
2023/06/06 00:21:28;;;;;;;3.60;1.70;;;;;;;17.76;38.18;101215.77;108463;1279;21979;-61
2023/06/06 00:23:55;;;;;;;2.60;1.50;;;;;;;17.74;38.30;101218.30;108512;1279;21994;-61
2023/06/06 00:26:20;;;;;;;3.80;1.90;;;;;;;17.74;38.34;101222.23;108451;1272;23065;-61
2023/06/06 00:28:46;;;;;;;4.90;1.90;;;;;;;17.73;38.37;101224.93;108413;1279;21979;-69
2023/06/06 00:31:13;;;;;;;4.10;1.90;;;;;;;17.69;38.52;101228.02;108512;1279;21982;-68
2023/06/06 00:33:38;;;;;;;4.90;2.10;;;;;;;17.65;38.68;101227.06;108496;1278;21986;-61
2023/06/06 00:36:04;;;;;;;4.80;1.80;;;;;;;17.64;38.59;101229.79;108290;1275;194072;-69
2023/06/06 00:38:31;;;;;;;5.30;2.30;;;;;;;17.66;38.58;101231.84;108493;1279;21985;-61
2023/06/06 00:40:57;;;;;;;6.00;1.80;;;;;;;17.66;38.46;101232.73;108536;1274;21953;-61
2023/06/06 00:43:23;;;;;;;6.10;3.70;;;;;;;17.64;38.18;101234.23;108450;1275;22754;-62
2023/06/06 00:45:48;;;;;;;4.30;2.10;;;;;;;17.57;38.29;101240.27;108499;1279;21987;-70
2023/06/06 00:48:14;;;;;;;6.00;2.20;;;;;;;17.50;38.44;101241.16;108470;1279;21980;-70
2023/06/06 00:50:42;;;;;;;2.80;1.30;;;;;;;17.44;38.49;101241.16;107760;1279;1003157;-70
2023/06/06 00:53:08;;;;;;;4.10;2.20;;;;;;;17.38;38.68;101239.36;108518;1279;22022;-61
2023/06/06 00:55:34;;;;;;;4.10;1.80;;;;;;;17.31;38.73;101237.42;108459;1275;22018;-61
2023/06/06 00:58:00;;;;;;;6.20;1.90;;;;;;;17.21;38.68;101239.64;108462;1278;21980;-70
2023/06/06 01:00:27;;;;;;;6.00;2.00;;;;;;;17.10;38.71;101240.64;108477;1279;21979;-62
2023/06/06 01:02:53;;;;;;;3.10;1.60;;;;;;;16.99;38.77;101241.09;108637;1273;21987;-62
2023/06/06 01:05:20;;;;;;;5.00;1.90;;;;;;;16.96;38.91;101238.31;108420;1276;21980;-63
2023/06/06 01:07:47;;;;;;;5.60;1.50;;;;;;;16.97;38.95;101238.84;108468;1275;22066;-61
2023/06/06 01:10:13;;;;;;;4.20;2.00;;;;;;;17.00;39.05;101238.41;108559;1268;21970;-69
2023/06/06 01:13:00;;;;;;;5.00;2.20;;;;;;;17.01;39.12;101238.88;108439;1275;22148;-62
2023/06/06 01:15:41;;;;;;;3.70;1.90;;;;;;;16.95;38.95;101241.34;108451;1280;21988;-62
2023/06/06 01:18:07;;;;;;;4.10;1.50;;;;;;;16.87;39.13;101245.59;107682;1275;1003563;-62
2023/06/06 01:20:34;;;;;;;3.40;1.50;;;;;;;16.86;39.25;101244.02;108463;1279;21984;-62
2023/06/06 01:23:00;;;;;;;4.20;1.30;;;;;;;16.85;39.16;101238.36;108460;1278;21981;-70
2023/06/06 01:25:26;;;;;;;3.90;1.60;;;;;;;16.75;39.05;101240.75;108424;1279;21990;-70
2023/06/06 01:27:55;;;;;;;4.80;1.90;;;;;;;16.62;39.15;101240.17;108520;1274;23092;-70
2023/06/06 01:30:26;;;;;;;3.60;1.50;;;;;;;16.55;39.31;101240.34;108518;1279;22048;-70
2023/06/06 01:32:57;;;;;;;;;;;;;;;16.51;39.34;101242.02;108450;1278;21966;-70
2023/06/06 01:35:50;;;;;;;4.90;1.90;;;;;;;16.45;39.48;101242.51;108485;1275;21984;-70
2023/06/06 01:38:38;;;;;;;3.60;1.60;;;;;;;16.41;39.51;101242.43;108476;1279;23307;-62
2023/06/06 01:41:04;;;;;;;3.90;2.00;;;;;;;16.34;39.51;101241.36;108485;1268;21978;-62
2023/06/06 01:43:31;;;;;;;3.50;2.30;;;;;;;16.31;39.73;101243.89;108508;1279;22171;-63
2023/06/06 01:45:57;;;;;;;4.00;1.60;;;;;;;16.32;39.85;101242.10;108489;1279;21979;-61
2023/06/06 01:48:23;;;;;;;2.80;1.60;;;;;;;16.35;39.89;101237.60;108424;1279;21984;-70
2023/06/06 01:50:48;;;;;;;6.20;2.00;;;;;;;16.36;39.91;101239.54;108465;1279;21979;-71
2023/06/06 01:53:14;;;;;;;6.30;2.00;;;;;;;16.31;39.90;101237.16;108495;1278;21983;-62
2023/06/06 01:55:41;;;;;;;4.10;1.70;;;;;;;16.26;39.97;101237.09;108489;1279;21994;-70
2023/06/06 01:58:07;;;;;;;5.40;1.90;;;;;;;16.22;40.01;101242.69;108687;1275;22453;-64
2023/06/06 02:00:33;;;;;;;4.10;1.70;;;;;;;16.22;40.10;101243.57;108421;1279;21985;-62
2023/06/06 02:02:59;;;;;;;10.70;2.00;;;;;;;16.24;40.20;101247.59;108694;1277;21987;-62
2023/06/06 02:05:24;;;;;;;4.20;1.70;;;;;;;16.24;40.17;101251.84;108621;1279;21984;-70
2023/06/06 02:07:51;;;;;;;5.50;1.90;;;;;;;16.22;40.33;101252.59;108500;1278;21990;-62
2023/06/06 02:10:17;;;;;;;4.60;1.70;;;;;;;16.21;40.40;101253.13;108533;1279;21982;-63
2023/06/06 02:12:42;;;;;;;8.50;1.80;;;;;;;16.19;40.40;101252.81;108589;1279;22038;-71
2023/06/06 02:15:10;;;;;;;3.60;1.50;;;;;;;16.14;40.45;101253.45;108588;1274;22034;-61
2023/06/06 02:17:35;;;;;;;6.90;2.60;;;;;;;16.07;40.47;101254.14;108547;1279;21967;-70
2023/06/06 02:20:04;;;;;;;4.90;2.10;;;;;;;15.99;40.65;101251.84;108464;1276;21985;-62
2023/06/06 02:22:30;;;;;;;5.40;2.10;;;;;;;15.97;40.87;101256.12;108654;1277;21979;-70
2023/06/06 02:24:56;;;;;;;5.50;2.50;;;;;;;15.98;40.97;101258.39;108485;1270;21984;-64
2023/06/06 02:27:21;;;;;;;7.80;2.20;;;;;;;16.02;40.94;101260.62;108568;1275;21954;-61
2023/06/06 02:29:47;;;;;;;3.40;1.40;;;;;;;16.09;41.06;101262.23;108649;1274;21987;-69
2023/06/06 02:32:12;;;;;;;5.40;1.80;;;;;;;16.17;41.17;101261.02;108576;1272;22018;-61
2023/06/06 02:34:38;;;;;;;3.50;1.60;;;;;;;16.24;41.34;101260.89;108551;1275;21979;-70
2023/06/06 02:37:06;;;;;;;6.00;2.40;;;;;;;16.26;41.30;101262.98;108381;1268;21990;-70
2023/06/06 02:39:35;;;;;;;8.40;1.80;;;;;;;16.29;41.35;101264.30;108421;1279;23650;-62
2023/06/06 02:42:05;;;;;;;3.50;2.30;;;;;;;16.38;41.50;101265.53;108430;1271;21983;-69
2023/06/06 02:44:32;;;;;;;7.60;1.60;;;;;;;16.46;41.65;101268.00;108406;1279;22158;-70
2023/06/06 02:46:58;;;;;;;8.60;2.10;;;;;;;16.52;41.70;101267.86;108444;1279;21957;-69
2023/06/06 02:49:23;;;;;;;4.10;1.60;;;;;;;16.58;41.92;101271.09;108481;1279;21983;-70
2023/06/06 02:51:49;;;;;;;4.80;1.70;;;;;;;16.65;41.82;101272.00;108413;1279;21984;-61
2023/06/06 02:54:14;;;;;;;3.10;1.60;;;;;;;16.71;41.80;101269.55;108401;1269;21991;-62
2023/06/06 02:56:40;;;;;;;3.00;1.50;;;;;;;16.72;41.60;101269.19;108381;1277;22000;-61
2023/06/06 02:59:07;;;;;;;4.50;1.70;;;;;;;16.70;41.69;101266.04;108396;1279;21975;-61
2023/06/06 03:01:36;;;;;;;3.60;1.70;;;;;;;16.69;41.84;101270.48;108387;1277;22024;-69
2023/06/06 03:04:03;;;;;;;7.30;1.80;;;;;;;16.72;42.05;101274.14;108416;1279;22237;-70
2023/06/06 03:06:36;;;;;;;4.90;1.40;;;;;;;16.78;42.28;101276.48;108416;1273;21980;-61
2023/06/06 03:09:03;;;;;;;3.40;1.50;;;;;;;16.88;42.45;101274.64;108469;1274;22020;-61
2023/06/06 03:11:30;;;;;;;9.60;2.10;;;;;;;17.00;42.75;101275.09;108504;1278;21990;-62
2023/06/06 03:13:56;;;;;;;13.20;2.60;;;;;;;17.14;42.99;101274.39;108444;1270;22069;-69
2023/06/06 03:16:25;;;;;;;5.80;2.30;;;;;;;17.29;43.07;101272.59;108442;1279;21998;-69
2023/06/06 03:18:55;;;;;;;6.10;1.90;;;;;;;17.44;43.27;101272.20;108420;1275;22436;-68
2023/06/06 03:21:20;;;;;;;6.50;1.90;;;;;;;17.58;43.38;101269.70;108460;1274;22019;-61
2023/06/06 03:23:47;;;;;;;9.50;2.30;;;;;;;17.71;43.40;101268.98;108452;1277;22021;-68
2023/06/06 03:26:13;;;;;;;7.70;1.80;;;;;;;17.84;43.63;101264.73;108369;1279;22039;-61
2023/06/06 03:28:40;;;;;;;8.60;2.60;;;;;;;17.97;43.77;101264.17;108449;1279;21983;-68
2023/06/06 03:31:06;;;;;;;6.40;2.70;;;;;;;18.12;43.69;101268.55;108427;1273;21979;-68
2023/06/06 03:33:32;;;;;;;18.40;2.60;;;;;;;18.27;43.84;101269.01;108427;1271;21986;-62
2023/06/06 03:35:59;;;;;;;27.80;5.80;;;;;;;18.44;43.80;101266.18;108440;1272;21988;-60
2023/06/06 03:38:24;;;;;;;12.50;2.70;;;;;;;18.60;43.90;101263.89;108479;1279;22678;-60
2023/06/06 03:40:50;;;;;;;18.40;3.80;;;;;;;18.78;44.10;101260.84;108439;1270;21986;-60
2023/06/06 03:43:15;;;;;;;14.30;3.20;;;;;;;18.94;43.98;101262.44;108458;1277;22446;-60
2023/06/06 03:45:41;;;;;;;6.60;2.50;;;;;;;19.11;44.20;101263.52;108449;1270;21979;-60
2023/06/06 03:48:09;;;;;;;6.60;2.20;;;;;;;19.25;44.61;101257.16;108391;1273;21982;-60
2023/06/06 03:50:35;;;;;;;14.00;3.30;;;;;;;19.40;44.56;101254.86;108452;1279;22001;-61
2023/06/06 03:53:02;;;;;;;6.20;2.50;;;;;;;19.57;44.93;101255.16;108465;1279;21978;-69
2023/06/06 03:55:28;;;;;;;12.40;2.90;;;;;;;19.75;44.77;101252.01;108471;1275;21999;-62
2023/06/06 03:57:54;;;;;;;10.60;5.70;;;;;;;19.93;44.62;101250.83;108461;1271;22197;-68
2023/06/06 04:00:20;;;;;;;8.90;7.10;;;;;;;20.12;44.70;101255.13;108423;1277;21996;-61
2023/06/06 04:02:46;;;;;;;11.20;6.40;;;;;;;20.29;44.67;101248.92;108445;1279;21989;-68
2023/06/06 04:05:12;;;;;;;8.40;5.10;;;;;;;20.48;44.89;101249.98;108418;1274;21986;-68
2023/06/06 04:07:37;;;;;;;10.70;6.00;;;;;;;20.65;44.86;101249.13;108483;1277;22002;-61
2023/06/06 04:10:04;;;;;;;12.90;8.90;;;;;;;20.82;45.00;101247.77;108454;1268;21983;-63
2023/06/06 04:12:30;;;;;;;21.30;12.10;;;;;;;21.02;45.25;101246.73;108422;1279;21987;-69
2023/06/06 04:14:55;;;;;;;17.50;14.20;;;;;;;21.27;45.13;101245.32;108427;1273;21988;-69
2023/06/06 04:17:21;;;;;;;17.40;14.20;;;;;;;21.52;45.02;101240.84;108438;1279;21991;-61
2023/06/06 04:19:47;;;;;;;25.40;18.90;;;;;;;21.76;44.91;101239.45;108532;1270;21990;-69
2023/06/06 04:22:15;;;;;;;28.40;21.70;;;;;;;21.99;44.71;101237.14;108496;1276;21984;-68
2023/06/06 04:24:40;;;;;;;24.60;20.30;;;;;;;22.21;44.68;101244.72;108467;1271;22040;-69
2023/06/06 04:27:07;;;;;;;28.20;24.40;;;;;;;22.43;44.59;101247.96;108448;1273;22044;-69
2023/06/06 04:29:36;;;;;;;21.60;19.40;;;;;;;22.67;44.19;101246.27;108512;1279;21990;-68
2023/06/06 04:32:04;;;;;;;23.00;20.60;;;;;;;22.90;43.99;101248.19;108551;1279;21953;-61
2023/06/06 04:34:30;;;;;;;34.20;30.60;;;;;;;23.12;43.79;101245.62;108549;1279;21987;-61
2023/06/06 04:37:17;;;;;;;41.10;37.10;;;;;;;23.34;43.70;101244.34;108435;1279;21958;-69
2023/06/06 04:39:42;;;;;;;57.50;46.90;;;;;;;23.57;43.35;101245.49;108425;1279;21988;-62
2023/06/06 04:42:08;;;;;;;52.50;47.00;;;;;;;23.80;42.89;101244.42;108697;1270;22023;-62
2023/06/06 04:44:41;;;;;;;56.50;50.40;;;;;;;24.04;42.42;101246.71;108456;1275;22037;-68
2023/06/06 04:47:08;;;;;;;57.30;51.20;;;;;;;24.28;42.00;101242.56;108437;1277;23074;-62
2023/06/06 04:49:36;;;;;;;81.10;72.60;;;;;;;24.49;41.30;101243.16;108419;1272;22028;-63
2023/06/06 04:52:06;;;;;;;93.30;83.30;;;;;;;24.71;41.06;101242.63;108488;1279;21955;-69
2023/06/06 04:54:33;;;;;;;103.90;93.10;;;;;;;24.95;40.60;101244.48;108483;1280;21985;-69
2023/06/06 04:57:00;;;;;;;100.20;89.40;;;;;;;25.17;40.11;101246.77;108439;1280;21986;-71
2023/06/06 04:59:27;;;;;;;131.20;108.70;;;;;;;25.40;40.07;101243.82;108474;1280;22025;-68
2023/06/06 05:01:55;;;;;;;124.80;111.50;;;;;;;25.63;39.66;101243.65;108440;1270;21990;-63
2023/06/06 05:04:22;;;;;;;151.80;131.00;;;;;;;25.86;39.37;101240.05;108481;1273;22022;-61
2023/06/06 05:06:47;;;;;;;169.40;138.40;;;;;;;26.09;38.64;101240.08;108452;1273;23028;-62
2023/06/06 05:09:13;;;;;;;182.70;155.40;;;;;;;26.31;38.36;101243.52;108599;1280;22006;-68
2023/06/06 05:11:44;;;;;;;232.70;201.40;;;;;;;26.54;38.05;101238.08;108479;1280;21994;-68
2023/06/06 05:14:10;;;;;;;232.70;206.70;;;;;;;26.77;37.00;101236.04;108465;1279;21991;-67
2023/06/06 05:16:35;;;;;;;256.60;222.60;;;;;;;26.97;36.60;101238.14;108409;1279;21981;-63
2023/06/06 05:19:02;;;;;;;303.00;259.50;;;;;;;27.15;36.76;101239.11;108417;1277;21979;-64
2023/06/06 05:21:28;;;;;;;304.40;264.30;;;;;;;27.32;35.65;101235.89;108447;1279;21987;-65
2023/06/06 05:23:54;;;;;;;314.40;264.50;;;;;;;27.49;36.06;101230.81;108447;1279;21983;-63
2023/06/06 05:26:20;;;;;;;335.60;282.80;;;;;;;27.70;36.22;101232.04;108439;1277;21984;-63
2023/06/06 05:28:45;;;;;;;333.80;280.70;;;;;;;27.94;35.93;101234.09;108437;1279;21987;-63
2023/06/06 05:31:16;;;;;;;364.00;298.20;;;;;;;28.16;35.80;101232.73;108449;1273;21987;-66
2023/06/06 05:33:42;;;;;;;401.90;328.40;;;;;;;28.37;34.90;101235.91;108400;1276;21982;-66
2023/06/06 05:36:07;;;;;;;417.20;369.00;;;;;;;28.50;34.40;101232.80;108415;1273;21967;-66
2023/06/06 05:38:33;;;;;;;420.50;354.70;;;;;;;28.63;34.60;101232.33;108405;1279;21948;-62
2023/06/06 05:40:59;;;;;;;397.30;318.60;;;;;;;28.87;34.97;101233.61;108498;1276;21987;-65
2023/06/06 05:43:25;;;;;;;446.00;396.80;;;;;;;29.15;34.62;101234.19;108422;1275;22016;-65
2023/06/06 05:45:51;;;;;;;512.50;459.60;;;;;;;29.35;33.34;101233.73;108469;1279;22006;-66
2023/06/06 05:48:17;;;;;;;556.50;498.00;;;;;;;29.43;33.06;101235.16;108393;1279;22001;-63
2023/06/06 05:50:43;;;;;;;599.90;539.60;;;;;;;29.49;32.89;101233.56;108479;1275;21985;-63
2023/06/06 05:53:09;;;;;;;562.20;503.70;;;;;;;29.55;31.71;101234.02;108364;1268;21990;-65
2023/06/06 05:55:35;;;;;;;580.50;521.40;;;;;;;29.57;32.33;101230.61;108463;1274;21963;-65
2023/06/06 05:58:03;;;;;;;548.60;491.20;;;;;;;29.71;32.55;101234.18;108470;1274;21983;-65
2023/06/06 06:00:30;;;;;;;643.20;579.20;;;;;;;29.90;31.90;101227.60;108468;1268;21990;-64
2023/06/06 06:02:57;;;;;;;609.10;547.20;;;;;;;30.02;31.57;101229.24;108518;1275;22951;-64
2023/06/06 06:05:28;;;;;;;640.20;575.30;;;;;;;30.14;31.75;101228.41;108400;1277;23719;-64
2023/06/06 06:08:00;;;;;;;637.20;572.50;;;;;;;30.27;31.68;101230.30;108417;1279;23708;-63
2023/06/06 06:10:30;;;;;;;707.80;640.20;;;;;;;30.40;31.00;101230.98;108481;1279;21989;-65
2023/06/06 06:12:56;;;;;;;759.90;686.80;;;;;;;30.46;29.72;101228.13;108484;1279;21994;-63
2023/06/06 06:15:22;;;;;;;760.10;685.50;;;;;;;30.41;29.35;101230.86;108453;1269;22056;-65
2023/06/06 06:17:48;;;;;;;819.80;740.60;;;;;;;30.48;29.69;101227.80;108499;1270;22015;-64
2023/06/06 06:20:17;;;;;;;799.50;721.10;;;;;;;30.61;29.38;101227.88;108407;1279;21988;-64
2023/06/06 06:22:43;;;;;;;813.90;734.20;;;;;;;30.76;29.56;101227.27;108429;1267;21977;-65
2023/06/06 06:25:13;;;;;;;805.20;728.30;;;;;;;30.92;29.05;101227.95;108412;1273;23052;-67
2023/06/06 06:27:42;;;;;;;811.20;731.10;;;;;;;31.02;28.84;101227.29;108505;1279;21947;-64
2023/06/06 06:30:09;;;;;;;858.60;772.70;;;;;;;31.14;28.90;101228.23;108544;1279;21988;-65
2023/06/06 06:32:36;;;;;;;837.50;755.80;;;;;;;31.26;28.66;101226.33;108547;1277;21977;-66
2023/06/06 06:35:02;;;;;;;880.50;793.90;;;;;;;31.39;28.22;101225.77;108423;1271;21994;-66
2023/06/06 06:37:31;;;;;;;873.80;786.90;;;;;;;31.44;27.82;101222.42;108412;1273;21973;-62
2023/06/06 06:39:58;;;;;;;902.70;812.80;;;;;;;31.48;27.49;101219.38;108397;1277;21983;-63
2023/06/06 06:42:24;;;;;;;898.70;808.40;;;;;;;31.48;27.83;101220.48;108400;1273;21981;-64
2023/06/06 06:44:50;;;;;;;894.70;802.70;;;;;;;31.69;28.08;101220.42;108442;1275;21983;-66
2023/06/06 06:47:16;;;;;;;885.40;795.40;;;;;;;32.02;27.61;101220.55;108449;1276;22039;-64
2023/06/06 06:49:42;;;;;;;988.90;884.20;;;;;;;32.31;27.52;101221.05;108389;1273;21982;-65
2023/06/06 06:52:11;;;;;;;930.00;835.60;;;;;;;32.45;26.57;101221.09;108395;1274;21983;-65
2023/06/06 06:54:57;;;;;;;939.80;842.90;;;;;;;32.45;25.99;101223.64;108438;1276;22001;-62
2023/06/06 06:57:26;;;;;;;958.00;860.50;;;;;;;32.35;24.47;101223.95;108401;1267;21992;-62
2023/06/06 07:00:14;;;;;;;963.00;862.80;;;;;;;32.25;24.76;101227.46;108560;1276;23648;-65
2023/06/06 07:02:42;;;;;;;976.60;876.10;;;;;;;32.19;25.46;101232.36;108425;1270;22162;-64
2023/06/06 07:05:09;;;;;;;961.60;862.40;;;;;;;32.16;25.67;101231.46;108421;1279;22448;-65
2023/06/06 07:07:42;;;;;;;978.30;876.60;;;;;;;32.27;25.52;101232.19;108467;1266;23486;-64
2023/06/06 07:10:08;;;;;;;983.60;880.90;;;;;;;32.26;25.50;101232.19;108404;1269;21983;-64
2023/06/06 07:12:34;;;;;;;973.20;872.30;;;;;;;32.34;25.20;101229.51;108403;1270;21989;-63
2023/06/06 07:15:00;;;;;;;969.80;869.10;;;;;;;32.54;25.82;101225.16;108381;1267;22933;-63
2023/06/06 07:17:26;;;;;;;989.60;885.30;;;;;;;32.94;25.61;101225.83;108442;1277;21984;-64
2023/06/06 07:19:52;;;;;;;991.10;888.30;;;;;;;33.26;25.75;101224.42;108416;1276;21996;-66
2023/06/06 07:22:18;;;;;;;1009.60;901.40;;;;;;;33.51;24.98;101226.30;108603;1270;21983;-64
2023/06/06 07:24:45;;;;;;;1002.00;894.40;;;;;;;33.61;24.80;101227.84;108388;1279;22796;-65
2023/06/06 07:27:13;;;;;;;1020.20;911.40;;;;;;;33.66;24.45;101227.36;108388;1273;21973;-65
2023/06/06 07:29:38;;;;;;;999.20;893.20;;;;;;;33.68;24.16;101225.17;108428;1279;21992;-64
2023/06/06 07:32:04;;;;;;;1016.90;906.50;;;;;;;33.75;24.49;101220.69;108461;1279;21995;-62
2023/06/06 07:34:30;;;;;;;1045.70;934.00;;;;;;;33.81;24.34;101223.18;108398;1277;22040;-64
2023/06/06 07:36:58;;;;;;;1013.80;902.00;;;;;;;33.85;24.44;101224.59;108520;1275;22041;-66
2023/06/06 07:39:23;;;;;;;1023.30;911.50;;;;;;;34.00;24.77;101219.38;108404;1279;22020;-65
2023/06/06 07:41:49;;;;;;;1038.60;927.50;;;;;;;34.26;25.05;101219.36;108397;1278;21980;-65
2023/06/06 07:44:16;;;;;;;1020.30;909.90;;;;;;;34.59;24.82;101220.05;108479;1279;21980;-65
2023/06/06 07:46:42;;;;;;;1166.60;971.70;;;;;;;34.90;24.75;101215.10;108398;1277;21990;-65
2023/06/06 07:49:07;;;;;;;1046.20;928.90;;;;;;;35.14;24.11;101213.55;108461;1279;21980;-65
2023/06/06 07:51:33;;;;;;;1064.40;937.20;;;;;;;35.31;23.51;101220.38;108388;1270;21988;-65
2023/06/06 07:53:58;;;;;;;1082.70;949.90;;;;;;;35.45;24.07;101215.08;108402;1270;21983;-61
2023/06/06 07:56:24;;;;;;;1068.50;942.90;;;;;;;35.78;24.20;101218.42;108422;1279;21979;-63
2023/06/06 07:58:54;;;;;;;1086.30;948.00;;;;;;;36.20;24.37;101213.72;108139;1279;23740;-64
2023/06/06 08:01:20;;;;;;;;;;;;;;;36.56;23.92;101209.84;108409;1273;21975;-64
2023/06/06 08:03:54;;;;;;;1054.70;938.40;;;;;;;36.77;23.52;101206.05;108364;1268;21979;-64
2023/06/06 08:06:20;;;;;;;1127.20;950.90;;;;;;;37.06;23.49;101201.96;108417;1279;23784;-63
2023/06/06 08:08:47;;;;;;;1120.40;975.20;;;;;;;37.36;23.61;101202.94;108455;1278;21981;-64
2023/06/06 08:11:13;;;;;;;1151.10;956.50;;;;;;;37.70;23.18;101207.29;108455;1271;21992;-63
2023/06/06 08:13:39;;;;;;;1170.20;987.60;;;;;;;37.84;21.99;101212.14;108468;1279;21993;-63
2023/06/06 08:16:05;;;;;;;1180.70;977.60;;;;;;;37.64;22.13;101214.64;108441;1279;21988;-63
2023/06/06 08:18:31;;;;;;;1188.60;998.00;;;;;;;37.51;22.08;101216.47;108421;1274;21994;-63
2023/06/06 08:20:56;;;;;;;1212.00;991.60;;;;;;;37.33;21.01;101219.95;108395;1268;21983;-62
2023/06/06 08:23:23;;;;;;;1206.90;994.30;;;;;;;36.90;20.79;101222.47;108411;1267;21980;-63
2023/06/06 08:25:48;;;;;;;1258.20;986.20;;;;;;;36.52;21.03;101222.83;108597;1277;21984;-65
2023/06/06 08:28:15;;;;;;;1235.80;993.20;;;;;;;36.28;21.36;101223.43;108657;1279;21987;-64
2023/06/06 08:30:41;;;;;;;1197.20;978.30;;;;;;;36.26;21.80;101228.02;108714;1271;21978;-65
2023/06/06 08:33:06;;;;;;;1191.60;977.30;;;;;;;36.39;22.13;101226.42;108596;1277;21980;-64
2023/06/06 08:35:32;;;;;;;1184.00;992.70;;;;;;;36.51;20.83;101219.45;108429;1271;21995;-65
2023/06/06 08:37:57;;;;;;;1169.60;969.90;;;;;;;36.46;21.19;101218.27;108451;1280;21992;-64
2023/06/06 08:40:23;;;;;;;1148.90;969.80;;;;;;;36.45;22.07;101218.27;108437;1273;21988;-63
2023/06/06 08:42:50;;;;;;;1183.80;972.90;;;;;;;36.72;22.63;101212.48;108391;1270;22458;-65
2023/06/06 08:45:20;;;;;;;1181.20;962.40;;;;;;;37.02;22.56;101214.79;108491;1277;23126;-64
2023/06/06 08:47:46;;;;;;;1178.80;966.40;;;;;;;37.23;22.63;101210.09;108407;1273;21982;-64
2023/06/06 08:50:11;;;;;;;1210.50;975.20;;;;;;;37.25;21.91;101204.57;108516;1279;22017;-64
2023/06/06 08:52:37;;;;;;;1209.10;989.20;;;;;;;36.98;21.51;101200.05;108446;1277;22023;-64
2023/06/06 08:55:03;;;;;;;1215.50;970.60;;;;;;;36.76;21.74;101204.33;108438;1273;21984;-63
2023/06/06 08:57:29;;;;;;;1191.50;983.00;;;;;;;36.81;21.73;101207.05;108415;1276;21990;-66
2023/06/06 08:59:54;;;;;;;1199.90;994.40;;;;;;;36.96;21.32;101206.64;108393;1274;21993;-64
2023/06/06 09:02:22;;;;;;;1225.60;995.40;;;;;;;36.92;21.05;101208.01;108453;1271;22023;-64
2023/06/06 09:04:48;;;;;;;1197.10;982.30;;;;;;;36.62;20.98;101205.70;108502;1279;21983;-64
2023/06/06 09:07:14;;;;;;;1211.30;992.30;;;;;;;36.21;21.21;101203.52;108562;1268;21993;-64
2023/06/06 09:09:45;;;;;;;1174.60;979.70;;;;;;;35.90;20.95;101204.10;108501;1273;21983;-63
2023/06/06 09:12:10;;;;;;;1203.50;988.60;;;;;;;35.56;21.12;101204.40;108629;1279;21990;-64
2023/06/06 09:14:36;;;;;;;1196.00;978.50;;;;;;;35.24;21.52;101200.30;108539;1276;21955;-66
2023/06/06 09:17:02;;;;;;;1169.90;961.80;;;;;;;35.15;21.67;101198.36;108441;1273;21991;-64
2023/06/06 09:19:29;;;;;;;1167.50;976.40;;;;;;;35.20;21.54;101192.52;108490;1280;21988;-66
2023/06/06 09:21:59;;;;;;;1123.20;963.00;;;;;;;35.36;21.89;101189.54;108442;1274;21984;-64
2023/06/06 09:24:25;;;;;;;;;;;;;;;35.86;21.91;101190.52;108588;1280;21961;-65
2023/06/06 09:26:51;;;;;;;1090.50;944.80;;;;;;;36.27;21.42;101186.64;108543;1279;21982;-64
2023/06/06 09:29:16;;;;;;;1145.30;969.10;;;;;;;36.63;20.68;101186.96;108496;1268;21994;-65
2023/06/06 09:31:42;;;;;;;1201.50;978.50;;;;;;;37.00;21.07;101183.25;108460;1279;21988;-64
2023/06/06 09:34:09;;;;;;;1188.50;978.70;;;;;;;37.46;20.94;101190.98;108411;1268;21980;-67
2023/06/06 09:36:35;;;;;;;1210.90;976.00;;;;;;;37.97;21.12;101189.17;108513;1268;22078;-64
2023/06/06 09:39:08;;;;;;;1216.10;993.10;;;;;;;38.49;21.13;101186.94;108473;1279;21985;-65
2023/06/06 09:41:47;;;;;;;1204.70;986.90;;;;;;;38.87;20.36;101189.36;108438;1268;21984;-64
2023/06/06 09:44:23;;;;;;;1220.10;996.50;;;;;;;38.89;20.34;101188.42;108557;1269;21998;-65
2023/06/06 09:46:49;;;;;;;1246.90;992.20;;;;;;;38.73;20.13;101192.16;108374;1276;21979;-65
2023/06/06 09:49:15;;;;;;;1242.70;988.50;;;;;;;38.54;20.12;101192.27;108473;1275;24012;-63
2023/06/06 09:51:44;;;;;;;1240.60;988.50;;;;;;;38.46;20.01;101191.49;108420;1270;23049;-64
2023/06/06 09:54:10;;;;;;;1297.10;997.50;;;;;;;38.57;20.08;101188.25;108452;1273;21985;-63
2023/06/06 09:56:39;;;;;;;1237.40;985.20;;;;;;;38.83;19.74;101189.38;108415;1280;22028;-63
2023/06/06 09:59:05;;;;;;;1224.60;996.20;;;;;;;38.90;19.60;101186.33;108559;1279;21997;-64
2023/06/06 10:01:32;;;;;;;1278.30;997.10;;;;;;;38.92;18.80;101183.83;110433;1279;21983;-64
2023/06/06 10:03:58;;;;;;;1269.50;991.30;;;;;;;38.87;18.46;101179.11;108686;1276;22237;-64
2023/06/06 10:06:26;;;;;;;1265.20;998.00;;;;;;;38.90;18.62;101177.86;108683;1274;22037;-64
2023/06/06 10:08:56;;;;;;;1251.30;994.10;;;;;;;38.99;18.37;101176.95;108497;1268;21984;-66
2023/06/06 10:11:22;;;;;;;1293.60;985.50;;;;;;;39.14;18.13;101175.20;108639;1279;21988;-65
2023/06/06 10:13:49;;;;;;;1257.30;996.40;;;;;;;39.30;18.46;101175.02;108726;1278;21994;-64
2023/06/06 10:16:15;;;;;;;1281.60;998.20;;;;;;;39.61;18.48;101171.91;108494;1279;22028;-64
2023/06/06 10:18:41;;;;;;;1329.90;999.10;;;;;;;39.99;18.67;101167.02;108597;1278;21985;-65
2023/06/06 10:21:06;;;;;;;1287.30;999.50;;;;;;;40.37;18.78;101165.89;108474;1271;21973;-64
2023/06/06 10:23:32;;;;;;;1286.10;997.90;;;;;;;40.76;18.73;101166.80;108463;1279;22030;-64
2023/06/06 10:25:57;;;;;;;1286.90;998.90;;;;;;;41.14;18.80;101166.28;108570;1277;22283;-66
2023/06/06 10:28:30;;;;;;;1309.60;998.80;;;;;;;41.43;18.72;101163.25;108386;1279;21986;-64
2023/06/06 10:31:05;;;;;;;1299.40;996.90;;;;;;;41.74;18.62;101162.08;108421;1279;22000;-65
2023/06/06 10:33:33;;;;;;;1297.80;996.60;;;;;;;41.93;18.18;101165.88;108445;1279;21986;-65
2023/06/06 10:36:01;;;;;;;1270.90;995.40;;;;;;;42.10;18.31;101167.77;108508;1278;23679;-65
2023/06/06 10:38:27;;;;;;;1286.00;997.00;;;;;;;42.38;18.34;101161.95;108443;1273;23042;-64
2023/06/06 10:40:58;;;;;;;1346.70;999.90;;;;;;;42.59;17.11;101163.91;108432;1279;21991;-68
2023/06/06 10:43:32;;;;;;;1310.80;999.60;;;;;;;42.24;15.72;101159.70;108443;1279;22077;-65
2023/06/06 10:45:58;;;;;;;1394.60;999.90;;;;;;;41.92;17.30;101157.88;108481;1279;21988;-65
2023/06/06 10:48:48;;;;;;;1324.50;999.90;;;;;;;42.05;17.36;101155.59;108574;1277;21983;-65
2023/06/06 10:51:23;;;;;;;1282.10;999.00;;;;;;;42.26;17.55;101150.39;108394;1277;21984;-67
2023/06/06 10:54:17;;;;;;;1335.70;999.30;;;;;;;42.53;17.43;101153.44;108468;1273;23634;-66
2023/06/06 10:56:52;;;;;;;1342.60;999.90;;;;;;;42.85;17.36;101156.41;108453;1278;21987;-64
2023/06/06 10:59:28;;;;;;;1405.60;999.90;;;;;;;43.14;17.20;101151.17;108437;1280;21986;-65